createdAt,value
2023-03-26T13:00:50.653Z,60.99
2023-03-26T13:02:32.516Z,61.30
2023-03-26T13:04:00.585Z,62.58
2023-03-26T13:05:08.548Z,61.76
2023-03-26T13:06:48.556Z,61.10
2023-03-26T13:08:11.422Z,61.39
2023-03-26T13:09:24.095Z,61.65
2023-03-26T13:10:29.410Z,61.61
2023-03-26T13:11:43.355Z,61.99
2023-03-26T13:12:57.134Z,61.96
2023-03-26T13:14:14.150Z,62.64
2023-03-26T13:15:30.676Z,61.65
2023-03-26T13:16:32.558Z,63.30
2023-03-26T13:17:46.619Z,63.02
2023-03-26T13:19:05.453Z,62.99
2023-03-26T13:20:16.393Z,62.61
2023-03-26T13:21:20.823Z,62.41
2023-03-26T13:22:45.983Z,61.89
2023-03-26T13:24:10.813Z,62.22
2023-03-26T13:25:21.573Z,62.58
2023-03-26T13:26:38.203Z,62.41
2023-03-26T13:27:55.262Z,62.18
2023-03-26T13:29:02.816Z,62.21
2023-03-26T13:30:31.397Z,62.07
2023-03-26T13:31:49.332Z,63.45
2023-03-26T13:33:05.116Z,63.78
2023-03-26T13:34:26.465Z,63.62
2023-03-26T13:36:00.229Z,64.17
2023-03-26T13:37:25.118Z,64.56
2023-03-26T13:38:59.253Z,64.66
2023-03-26T13:40:32.988Z,64.00
2023-03-26T13:41:53.592Z,64.58
2023-03-26T13:43:14.036Z,64.37
2023-03-26T13:44:46.774Z,64.84
2023-03-26T13:46:08.873Z,65.08
2023-03-26T13:47:19.880Z,64.32
2023-03-26T13:48:27.683Z,64.78
2023-03-26T13:49:37.407Z,65.04
2023-03-26T13:50:42.971Z,64.62
2023-03-26T13:51:52.673Z,64.93
2023-03-26T13:53:06.865Z,65.49
2023-03-26T13:54:50.810Z,66.11
2023-03-26T13:56:01.470Z,65.58
2023-03-26T13:57:29.583Z,65.80
2023-03-26T13:58:38.877Z,65.40
2023-03-26T14:00:22.095Z,65.89
2023-03-26T14:01:41.374Z,64.98
2023-03-26T14:02:47.919Z,65.74
2023-03-26T14:04:08.456Z,65.85
2023-03-26T14:05:33.640Z,66.05
2023-03-26T14:06:46.851Z,65.78
2023-03-26T14:08:14.577Z,66.10
2023-03-26T14:09:27.147Z,65.33
2023-03-26T14:10:37.025Z,65.83
2023-03-26T14:12:00.340Z,65.74
2023-03-26T14:13:16.639Z,65.87
2023-03-26T14:14:29.140Z,66.14
2023-03-26T14:15:44.901Z,66.47
2023-03-26T14:16:54.667Z,65.95
2023-03-26T14:18:24.340Z,65.46
2023-03-26T14:19:53.889Z,66.36
2023-03-26T14:21:29.584Z,66.52
2023-03-26T14:22:47.534Z,66.43
2023-03-26T14:23:58.620Z,66.69
2023-03-26T14:25:17.099Z,66.29
2023-03-26T14:26:32.054Z,66.16
2023-03-26T14:28:11.295Z,66.83
2023-03-26T14:29:13.173Z,66.83
2023-03-26T14:30:23.920Z,66.77
2023-03-26T14:31:51.002Z,66.93
2023-03-26T14:33:27.069Z,66.74
2023-03-26T14:34:52.320Z,67.11
2023-03-26T14:36:13.660Z,66.81
2023-03-26T14:37:53.659Z,66.29
2023-03-26T14:39:17.199Z,67.21
2023-03-26T14:40:25.430Z,67.07
2023-03-26T14:41:40.544Z,67.11
2023-03-26T14:43:01.702Z,67.13
2023-03-26T14:44:12.566Z,67.41
2023-03-26T14:45:23.570Z,66.57
2023-03-26T14:46:56.792Z,67.25
2023-03-26T14:48:20.481Z,66.96
2023-03-26T14:49:49.936Z,66.56
2023-03-26T14:51:10.048Z,66.97
2023-03-26T14:52:20.771Z,67.45
2023-03-26T14:53:28.086Z,67.16
2023-03-26T14:54:34.557Z,66.96
2023-03-26T14:55:49.517Z,67.08
2023-03-26T14:56:53.927Z,67.59
2023-03-26T14:57:58.860Z,66.88
2023-03-26T14:59:12.674Z,67.22
2023-03-26T15:00:34.948Z,67.16
2023-03-26T15:02:10.658Z,67.24
2023-03-26T15:03:31.017Z,67.59
2023-03-26T15:04:48.126Z,67.51
2023-03-26T15:06:12.774Z,67.55
2023-03-26T15:07:20.792Z,67.72
2023-03-26T15:08:33.355Z,67.37
2023-03-26T15:09:57.435Z,67.77
2023-03-26T15:11:27.184Z,68.34
2023-03-26T15:12:32.938Z,67.71
2023-03-26T15:14:19.252Z,68.17
2023-03-26T15:15:26.834Z,67.25
2023-03-26T15:16:37.779Z,68.03
2023-03-26T15:17:58.619Z,67.63
2023-03-26T15:19:22.106Z,67.05
2023-03-26T15:20:41.855Z,66.95
2023-03-26T15:21:55.885Z,66.45
2023-03-26T15:23:00.769Z,66.07
2023-03-26T15:24:17.676Z,66.47
2023-03-26T15:25:38.119Z,66.09
2023-03-26T15:26:42.959Z,65.77
2023-03-26T15:28:22.503Z,66.37
2023-03-26T15:30:08.759Z,66.54
2023-03-26T15:31:26.405Z,65.06
2023-03-26T15:33:05.341Z,65.96
2023-03-26T15:34:25.928Z,65.54
2023-03-26T15:35:33.524Z,65.14
2023-03-26T15:36:53.844Z,66.22
2023-03-26T15:38:23.270Z,65.52
2023-03-26T15:40:01.408Z,64.92
2023-03-26T15:41:31.046Z,64.83
2023-03-26T15:42:51.752Z,64.53
2023-03-26T15:44:23.422Z,64.18
2023-03-26T15:45:31.493Z,63.94
2023-03-26T15:46:53.496Z,64.42
2023-03-26T15:48:11.889Z,63.48
2023-03-26T15:49:16.652Z,63.72
2023-03-26T15:50:39.701Z,64.01
2023-03-26T15:52:09.335Z,63.17
2023-03-26T15:53:48.235Z,63.89
2023-03-26T15:55:07.566Z,62.78
2023-03-26T15:56:16.155Z,62.80
2023-03-26T15:57:23.588Z,62.89
2023-03-26T15:58:31.077Z,62.74
2023-03-26T15:59:52.519Z,62.34
2023-03-26T16:01:27.155Z,63.27
2023-03-26T16:02:29.803Z,62.11
2023-03-26T16:04:22.865Z,63.26
2023-03-26T16:05:32.335Z,61.95
2023-03-26T16:06:34.578Z,62.26
2023-03-26T16:07:39.186Z,62.34
2023-03-26T16:09:04.885Z,62.55
2023-03-26T16:10:30.820Z,62.40
2023-03-26T16:11:57.939Z,61.74
2023-03-26T16:13:27.347Z,61.97
2023-03-26T16:14:35.407Z,62.06
2023-03-26T16:15:37.653Z,62.00
2023-03-26T16:16:53.039Z,62.19
2023-03-26T16:18:11.824Z,62.44
2023-03-26T16:19:20.189Z,62.65
2023-03-26T16:20:33.495Z,61.81
2023-03-26T16:21:42.902Z,62.24
2023-03-26T16:22:53.435Z,62.10
2023-03-26T16:24:20.555Z,62.60
2023-03-26T16:25:31.433Z,61.83
2023-03-26T16:27:08.069Z,62.41
2023-03-26T16:28:26.533Z,61.99
2023-03-26T16:29:30.729Z,61.85
2023-03-26T16:30:33.118Z,62.21
2023-03-26T16:31:38.239Z,61.86
2023-03-26T16:32:56.337Z,62.07
2023-03-26T16:34:09.293Z,62.05
2023-03-26T16:35:14.390Z,61.82
2023-03-26T16:36:37.014Z,62.57
2023-03-26T16:37:50.092Z,62.02
2023-03-26T16:39:17.285Z,62.89
2023-03-26T16:40:22.642Z,62.34
2023-03-26T16:41:30.538Z,61.81
2023-03-26T16:42:40.108Z,62.07
2023-03-26T16:43:55.955Z,61.98
2023-03-26T16:45:14.706Z,62.00
2023-03-26T16:46:36.706Z,62.40
2023-03-26T16:48:06.463Z,62.61
2023-03-26T16:49:21.635Z,61.69
2023-03-26T16:50:37.193Z,61.36
2023-03-26T16:51:39.392Z,61.50
2023-03-26T16:52:55.040Z,61.58
2023-03-26T16:54:39.793Z,62.49
2023-03-26T16:55:57.888Z,62.05
2023-03-26T16:57:17.295Z,61.38
2023-03-26T16:58:41.042Z,61.32
2023-03-26T17:00:08.653Z,62.29
2023-03-26T17:01:43.151Z,61.72
2023-03-26T17:02:57.009Z,61.46
2023-03-26T17:04:03.036Z,61.21
2023-03-26T17:05:18.960Z,61.32
2023-03-26T17:06:30.770Z,61.35
2023-03-26T17:07:42.002Z,61.42
2023-03-26T17:09:13.395Z,60.89
2023-03-26T17:10:37.584Z,61.81
2023-03-26T17:12:08.756Z,62.02
2023-03-26T17:13:23.342Z,60.71
2023-03-26T17:14:25.512Z,61.38
2023-03-26T17:15:43.170Z,61.85
2023-03-26T17:17:25.634Z,61.88
2023-03-26T17:18:50.027Z,62.31
2023-03-26T17:20:23.662Z,61.39
2023-03-26T17:22:01.375Z,61.92
2023-03-26T17:23:22.162Z,60.89
2023-03-26T17:24:27.960Z,61.46
2023-03-26T17:25:55.177Z,62.13
2023-03-26T17:27:25.112Z,62.32
2023-03-26T17:28:54.914Z,62.10
2023-03-26T17:30:32.420Z,61.92
2023-03-26T17:31:40.370Z,61.99
2023-03-26T17:33:04.007Z,62.18
2023-03-26T17:34:49.232Z,62.67
2023-03-26T17:36:11.942Z,62.15
2023-03-26T17:37:17.008Z,62.06
2023-03-26T17:38:24.732Z,61.85
2023-03-26T17:39:38.873Z,62.24
2023-03-26T17:41:00.311Z,62.41
2023-03-26T17:42:19.201Z,62.01
2023-03-26T17:43:53.099Z,62.95
2023-03-26T17:45:17.773Z,62.36
2023-03-26T17:46:33.188Z,62.23
2023-03-26T17:47:39.922Z,61.74
2023-03-26T17:48:47.190Z,61.60
2023-03-26T17:49:54.020Z,61.83
2023-03-26T17:51:02.925Z,61.63
2023-03-26T17:52:41.853Z,62.33
2023-03-26T17:53:43.905Z,61.71
2023-03-26T17:54:48.168Z,61.49
2023-03-26T17:55:51.615Z,61.56
2023-03-26T17:56:56.605Z,61.32
2023-03-26T17:58:07.452Z,61.31
2023-03-26T17:59:23.211Z,62.26
2023-03-26T18:00:47.184Z,61.58
2023-03-26T18:01:56.283Z,62.42
2023-03-26T18:03:08.004Z,62.67
2023-03-26T18:04:19.838Z,62.70
2023-03-26T18:05:25.073Z,62.76
2023-03-26T18:06:46.723Z,63.37
2023-03-26T18:08:20.054Z,63.76
2023-03-26T18:09:24.851Z,63.29
2023-03-26T18:10:49.641Z,63.64
2023-03-26T18:12:04.239Z,63.79
2023-03-26T18:13:41.360Z,63.54
2023-03-26T18:15:19.956Z,63.79
2023-03-26T18:16:25.634Z,63.94
2023-03-26T18:17:38.547Z,63.84
2023-03-26T18:18:58.055Z,63.92
2023-03-26T18:20:10.007Z,64.33
2023-03-26T18:21:19.817Z,64.38
2023-03-26T18:22:28.598Z,64.19
2023-03-26T18:23:37.822Z,64.24
2023-03-26T18:24:42.254Z,64.28
2023-03-26T18:25:52.585Z,64.18
2023-03-26T18:27:16.896Z,64.35
2023-03-26T18:28:18.678Z,64.62
2023-03-26T18:29:35.611Z,64.71
2023-03-26T18:30:47.439Z,64.55
2023-03-26T18:31:54.280Z,64.29
2023-03-26T18:33:14.069Z,64.62
2023-03-26T18:34:20.619Z,64.31
2023-03-26T18:35:24.268Z,64.41
2023-03-26T18:36:30.453Z,64.23
2023-03-26T18:37:34.455Z,64.47
2023-03-26T18:38:38.489Z,64.71
2023-03-26T18:40:02.312Z,64.62
2023-03-26T18:41:06.695Z,64.34
2023-03-26T18:42:22.836Z,64.95
2023-03-26T18:43:34.914Z,64.24
2023-03-26T18:44:37.342Z,64.51
2023-03-26T18:45:40.619Z,64.25
2023-03-26T18:46:43.622Z,64.07
2023-03-26T18:47:47.915Z,64.13
2023-03-26T18:48:49.871Z,64.12
2023-03-26T18:49:55.764Z,64.25
2023-03-26T18:51:05.987Z,64.33
2023-03-26T18:52:14.480Z,64.17
2023-03-26T18:53:32.501Z,64.37
2023-03-26T18:54:36.680Z,64.08
2023-03-26T18:55:39.753Z,64.29
2023-03-26T18:56:43.837Z,64.23
2023-03-26T18:57:51.617Z,64.19
2023-03-26T18:58:57.868Z,64.51
2023-03-26T19:00:17.339Z,64.20
2023-03-26T19:01:25.955Z,64.16
2023-03-26T19:02:28.310Z,64.26
2023-03-26T19:03:36.367Z,64.42
2023-03-26T19:04:38.671Z,64.29
2023-03-26T19:05:41.049Z,64.67
2023-03-26T19:06:44.352Z,64.65
2023-03-26T19:07:47.382Z,64.90
2023-03-26T19:08:49.713Z,64.85
2023-03-26T19:09:56.422Z,65.05
2023-03-26T19:11:02.438Z,65.17
2023-03-26T19:12:07.728Z,65.18
2023-03-26T19:13:15.219Z,65.30
2023-03-26T19:14:19.773Z,65.28
2023-03-26T19:15:23.289Z,65.40
2023-03-26T19:16:29.964Z,65.36
2023-03-26T19:17:38.824Z,65.37
2023-03-26T19:18:44.154Z,65.46
2023-03-26T19:19:46.363Z,65.59
2023-03-26T19:20:48.172Z,65.48
2023-03-26T19:21:50.779Z,65.47
2023-03-26T19:22:53.532Z,65.56
2023-03-26T19:23:56.479Z,65.59
2023-03-26T19:25:01.444Z,65.54
2023-03-26T19:26:07.860Z,65.74
2023-03-26T19:27:11.237Z,65.95
2023-03-26T19:28:22.871Z,65.85
2023-03-26T19:29:28.610Z,65.91
2023-03-26T19:30:33.986Z,65.96
2023-03-26T19:31:39.094Z,65.87
2023-03-26T19:32:41.228Z,65.83
2023-03-26T19:33:44.559Z,65.93
2023-03-26T19:34:48.453Z,65.96
2023-03-26T19:36:17.936Z,66.28
2023-03-26T19:37:25.459Z,66.17
2023-03-26T19:38:39.396Z,66.08
2023-03-26T19:39:44.378Z,66.37
2023-03-26T19:40:46.490Z,66.31
2023-03-26T19:41:51.735Z,66.31
2023-03-26T19:42:53.792Z,66.51
2023-03-26T19:43:59.878Z,66.26
2023-03-26T19:45:04.311Z,66.16
2023-03-26T19:46:06.570Z,66.52
2023-03-26T19:47:35.231Z,66.21
2023-03-26T19:48:45.897Z,66.65
2023-03-26T19:49:56.279Z,66.76
2023-03-26T19:51:05.019Z,66.47
2023-03-26T19:52:15.194Z,66.75
2023-03-26T19:53:25.555Z,66.51
2023-03-26T19:54:27.343Z,66.65
2023-03-26T19:55:29.438Z,66.90
2023-03-26T19:56:31.683Z,66.82
2023-03-26T19:57:38.144Z,66.75
2023-03-26T19:58:41.761Z,66.70
2023-03-26T19:59:43.677Z,66.82
2023-03-26T20:00:53.135Z,66.73
2023-03-26T20:01:55.081Z,66.80
2023-03-26T20:02:57.828Z,66.50
2023-03-26T20:04:07.589Z,66.67
2023-03-26T20:05:19.586Z,66.81
2023-03-26T20:06:30.821Z,66.83
2023-03-26T20:07:40.183Z,66.79
2023-03-26T20:08:42.895Z,66.72
2023-03-26T20:09:45.588Z,66.77
2023-03-26T20:10:47.584Z,66.93
2023-03-26T20:11:50.431Z,66.79
2023-03-26T20:12:52.789Z,66.83
2023-03-26T20:13:54.645Z,66.95
2023-03-26T20:14:56.614Z,66.82
2023-03-26T20:16:07.422Z,66.85
2023-03-26T20:17:14.587Z,66.73
2023-03-26T20:18:16.383Z,67.10
2023-03-26T20:19:19.269Z,66.71
2023-03-26T20:20:24.652Z,66.89
2023-03-26T20:21:26.750Z,67.08
2023-03-26T20:22:28.666Z,66.96
2023-03-26T20:23:30.561Z,67.12
2023-03-26T20:24:33.644Z,66.97
2023-03-26T20:25:49.265Z,67.42
2023-03-26T20:26:51.244Z,67.08
2023-03-26T20:27:55.445Z,67.36
2023-03-26T20:28:57.297Z,67.34
2023-03-26T20:29:59.140Z,67.31
2023-03-26T20:31:01.246Z,67.60
2023-03-26T20:32:06.670Z,67.30
2023-03-26T20:33:17.118Z,67.27
2023-03-26T20:34:23.684Z,67.07
2023-03-26T20:35:35.957Z,67.30
2023-03-26T20:36:39.242Z,67.48
2023-03-26T20:37:41.964Z,67.42
2023-03-26T20:38:45.198Z,67.30
2023-03-26T20:39:47.124Z,67.27
2023-03-26T20:40:49.708Z,67.36
2023-03-26T20:41:53.647Z,67.42
2023-03-26T20:42:55.569Z,67.44
2023-03-26T20:43:57.502Z,67.55
2023-03-26T20:44:59.322Z,67.39
2023-03-26T20:46:01.865Z,67.35
2023-03-26T20:47:03.929Z,67.62
2023-03-26T20:48:06.164Z,67.52
2023-03-26T20:49:08.116Z,67.56
2023-03-26T20:50:15.450Z,67.50
2023-03-26T20:51:17.944Z,67.58
2023-03-26T20:52:19.773Z,67.59
2023-03-26T20:53:21.552Z,67.64
2023-03-26T20:54:25.795Z,67.55
2023-03-26T20:55:28.457Z,67.42
2023-03-26T20:56:30.511Z,67.46
2023-03-26T20:57:33.772Z,67.60
2023-03-26T20:58:35.872Z,67.84
2023-03-26T20:59:37.716Z,67.65
2023-03-26T21:00:39.884Z,67.55
2023-03-26T21:01:42.279Z,67.63
2023-03-26T21:02:44.286Z,67.62
2023-03-26T21:03:46.570Z,67.53
2023-03-26T21:04:48.415Z,67.42
2023-03-26T21:05:52.516Z,67.44
2023-03-26T21:07:00.213Z,67.36
2023-03-26T21:08:05.854Z,67.08
2023-03-26T21:09:14.981Z,67.25
2023-03-26T21:10:18.534Z,67.57
2023-03-26T21:11:27.774Z,67.26
2023-03-26T21:12:39.249Z,67.56
2023-03-26T21:13:50.810Z,67.08
2023-03-26T21:14:55.951Z,67.09
2023-03-26T21:16:00.438Z,67.41
2023-03-26T21:17:03.278Z,67.25
2023-03-26T21:18:05.745Z,67.25
2023-03-26T21:19:10.311Z,67.11
2023-03-26T21:20:13.575Z,67.21
2023-03-26T21:21:35.859Z,66.94
2023-03-26T21:22:49.249Z,67.22
2023-03-26T21:24:17.349Z,66.95
2023-03-26T21:25:27.396Z,67.61
2023-03-26T21:26:44.127Z,67.08
2023-03-26T21:27:55.647Z,67.08
2023-03-26T21:28:59.503Z,67.32
2023-03-26T21:30:02.027Z,67.19
2023-03-26T21:31:06.216Z,67.07
2023-03-26T21:32:13.839Z,67.31
2023-03-26T21:33:15.634Z,66.94
2023-03-26T21:34:17.897Z,66.91
2023-03-26T21:35:20.505Z,67.04
2023-03-26T21:36:23.239Z,67.25
2023-03-26T21:37:25.875Z,67.13
2023-03-26T21:38:28.087Z,66.79
2023-03-26T21:39:30.494Z,66.75
2023-03-26T21:40:33.142Z,66.77
2023-03-26T21:42:05.262Z,66.50
2023-03-26T21:43:11.733Z,66.79
2023-03-26T21:44:14.599Z,66.27
2023-03-26T21:45:17.577Z,66.34
2023-03-26T21:46:20.091Z,66.47
2023-03-26T21:47:22.166Z,66.39
2023-03-26T21:48:24.502Z,66.54
2023-03-26T21:49:26.913Z,66.26
2023-03-26T21:50:29.214Z,66.56
2023-03-26T21:51:32.308Z,66.31
2023-03-26T21:52:35.119Z,66.66
2023-03-26T21:53:37.364Z,66.52
2023-03-26T21:54:40.981Z,66.48
2023-03-26T21:56:18.252Z,66.87
2023-03-26T21:57:32.180Z,67.06
2023-03-26T21:59:15.105Z,67.07
2023-03-26T22:00:18.984Z,66.95
2023-03-26T22:01:32.201Z,66.99
2023-03-26T22:03:06.194Z,67.16
2023-03-26T22:04:11.251Z,66.87
2023-03-26T22:05:23.367Z,67.26
2023-03-26T22:06:27.999Z,66.87
2023-03-26T22:08:01.789Z,67.26
2023-03-26T22:09:04.803Z,67.58
2023-03-26T22:10:07.234Z,67.38
2023-03-26T22:11:11.486Z,67.62
2023-03-26T22:12:13.346Z,67.64
2023-03-26T22:13:15.301Z,67.78
2023-03-26T22:14:18.174Z,67.93
2023-03-26T22:15:20.626Z,67.77
2023-03-26T22:16:25.559Z,67.77
2023-03-26T22:17:27.841Z,67.99
2023-03-26T22:18:30.292Z,68.00
2023-03-26T22:19:32.274Z,68.19
2023-03-26T22:20:34.351Z,68.12
2023-03-26T22:21:36.236Z,68.20
2023-03-26T22:22:38.110Z,68.46
2023-03-26T22:23:40.225Z,68.26
2023-03-26T22:24:42.385Z,68.51
2023-03-26T22:25:45.592Z,68.39
2023-03-26T22:26:47.499Z,68.48
2023-03-26T22:27:50.755Z,68.51
2023-03-26T22:28:53.382Z,68.55
2023-03-26T22:29:55.673Z,68.37
2023-03-26T22:30:58.360Z,68.44
2023-03-26T22:32:00.414Z,68.57
2023-03-26T22:33:02.252Z,68.56
2023-03-26T22:34:04.341Z,68.53
2023-03-26T22:35:07.240Z,68.50
2023-03-26T22:36:23.169Z,68.53
2023-03-26T22:37:26.077Z,68.67
2023-03-26T22:38:27.885Z,68.94
2023-03-26T22:39:29.802Z,68.76
2023-03-26T22:40:31.980Z,68.58
2023-03-26T22:41:33.792Z,68.55
2023-03-26T22:42:36.696Z,68.61
2023-03-26T22:43:39.083Z,68.68
2023-03-26T22:44:41.415Z,68.09
2023-03-26T22:45:49.947Z,68.10
2023-03-26T22:46:52.600Z,68.12
2023-03-26T22:48:03.439Z,67.91
2023-03-26T22:49:06.452Z,67.75
2023-03-26T22:50:10.872Z,67.99
2023-03-26T22:51:12.912Z,67.52
2023-03-26T22:52:14.825Z,67.43
2023-03-26T22:53:16.945Z,67.38
2023-03-26T22:54:18.898Z,67.38
2023-03-26T22:55:29.060Z,67.65
2023-03-26T22:56:31.991Z,67.38
2023-03-26T22:57:34.209Z,67.38
2023-03-26T22:58:36.381Z,67.50
2023-03-26T22:59:38.243Z,67.40
2023-03-26T23:00:40.144Z,67.47
2023-03-26T23:01:42.084Z,67.54
2023-03-26T23:02:47.614Z,67.48
2023-03-26T23:03:49.799Z,67.67
2023-03-26T23:04:52.752Z,67.36
2023-03-26T23:05:58.182Z,67.43
2023-03-26T23:07:00.267Z,67.12
2023-03-26T23:08:02.071Z,67.09
2023-03-26T23:09:07.232Z,67.49
2023-03-26T23:10:11.286Z,67.19
2023-03-26T23:11:17.289Z,67.56
2023-03-26T23:12:19.149Z,67.50
2023-03-26T23:13:22.084Z,67.52
2023-03-26T23:14:24.309Z,67.34
2023-03-26T23:15:26.242Z,67.41
2023-03-26T23:16:28.364Z,67.78
2023-03-26T23:17:30.314Z,67.82
2023-03-26T23:18:32.333Z,68.03
2023-03-26T23:19:34.688Z,68.50
2023-03-26T23:20:39.408Z,68.76
2023-03-26T23:21:41.555Z,68.95
2023-03-26T23:22:43.824Z,69.63
2023-03-26T23:23:46.312Z,69.65
2023-03-26T23:24:48.304Z,69.72
2023-03-26T23:25:51.989Z,69.94
2023-03-26T23:26:53.858Z,70.19
2023-03-26T23:27:55.750Z,70.12
2023-03-26T23:28:57.537Z,70.50
2023-03-26T23:29:59.504Z,70.74
2023-03-26T23:31:04.450Z,70.80
2023-03-26T23:32:24.026Z,71.11
2023-03-26T23:33:31.768Z,71.03
2023-03-26T23:34:34.159Z,71.03
2023-03-26T23:35:36.232Z,71.27
2023-03-26T23:36:38.086Z,71.65
2023-03-26T23:37:42.732Z,71.54
2023-03-26T23:38:49.049Z,71.51
2023-03-26T23:39:51.942Z,71.71
2023-03-26T23:40:57.442Z,72.05
2023-03-26T23:41:59.582Z,72.17
2023-03-26T23:43:01.466Z,72.06
2023-03-26T23:44:04.174Z,72.37
2023-03-26T23:45:06.855Z,72.61
2023-03-26T23:46:12.019Z,72.71
2023-03-26T23:47:16.849Z,72.56
2023-03-26T23:48:23.941Z,72.81
2023-03-26T23:49:26.826Z,72.99
2023-03-26T23:50:29.596Z,72.98
2023-03-26T23:51:32.548Z,73.05
2023-03-26T23:52:34.570Z,73.18
2023-03-26T23:53:36.592Z,73.19
2023-03-26T23:54:38.561Z,73.35
2023-03-26T23:55:47.545Z,73.43
2023-03-26T23:56:49.440Z,73.30
2023-03-26T23:57:51.713Z,73.43
2023-03-26T23:58:54.017Z,73.26
2023-03-26T23:59:56.459Z,73.58
